Time;durP1;ratioP1;P1;durP2;ratioP2;P2;SDS_P1;SDS_P2;PMS_P1;PMS_P2;Temp;Humidity;BMP_temperature;BMP_pressure;BME280_temperature;BME280_humidity;BME280_pressure;Samples;Min_cycle;Max_cycle;Signal;HPM_P1;HPM_P2
2022/04/04 00:01:51;;;;;;;5.10;3.00;;;;;;;7.21;52.22;101154.50;5026664;28;98869;-72
2022/04/04 00:04:20;;;;;;;6.15;3.10;;;;;;;7.48;51.58;101154.03;5022127;28;96852;-71
2022/04/04 00:06:46;;;;;;;4.82;3.03;;;;;;;7.71;50.85;101143.13;5016447;28;96871;-71
2022/04/04 00:09:13;;;;;;;3.65;2.90;;;;;;;7.52;51.04;101146.97;5019981;27;99335;-72
2022/04/04 00:11:40;;;;;;;4.35;2.80;;;;;;;7.32;51.94;101149.06;5019252;28;99506;-71
2022/04/04 00:14:06;;;;;;;7.07;3.10;;;;;;;7.28;52.10;101147.38;5019367;28;98672;-70
2022/04/04 00:16:35;;;;;;;5.53;3.33;;;;;;;7.69;50.91;101144.03;5022331;28;96990;-72
2022/04/04 00:19:05;;;;;;;5.75;2.95;;;;;;;7.80;50.24;101143.00;5018106;28;100702;-71
2022/04/04 00:21:33;;;;;;;4.20;2.85;;;;;;;7.84;49.94;101128.00;5016143;27;99312;-71
2022/04/04 00:24:00;;;;;;;5.82;3.05;;;;;;;7.87;50.00;101133.22;5023301;27;97429;-72
2022/04/04 00:26:27;;;;;;;5.38;2.97;;;;;;;7.94;49.69;101127.78;5015101;28;97335;-70
2022/04/04 00:28:54;;;;;;;4.80;3.10;;;;;;;7.67;50.43;101130.94;5018908;28;99375;-70
2022/04/04 00:31:20;;;;;;;6.72;3.00;;;;;;;7.68;50.23;101129.19;5022563;28;99650;-70
2022/04/04 00:33:47;;;;;;;5.75;2.70;;;;;;;7.55;50.59;101129.38;5019387;28;96710;-70
2022/04/04 00:36:13;;;;;;;3.42;2.83;;;;;;;7.69;50.42;101123.88;5021827;27;97412;-70
2022/04/04 00:38:41;;;;;;;16.13;3.53;;;;;;;7.69;50.40;101130.91;5019884;28;98204;-69
2022/04/04 00:41:09;;;;;;;5.78;2.90;;;;;;;7.33;51.49;101129.78;5022023;28;100951;-71
2022/04/04 00:43:36;;;;;;;6.82;3.25;;;;;;;7.36;51.45;101130.56;5015042;28;97565;-71
2022/04/04 00:46:03;;;;;;;6.30;2.83;;;;;;;7.48;50.85;101129.53;5022352;28;96720;-70
2022/04/04 00:48:30;;;;;;;4.05;2.88;;;;;;;7.46;50.97;101121.66;5014647;28;98705;-71
2022/04/04 00:50:57;;;;;;;6.75;3.45;;;;;;;7.55;51.16;101121.47;5017704;28;99280;-71
2022/04/04 00:53:25;;;;;;;7.93;3.30;;;;;;;7.50;50.81;101125.97;5028021;27;96805;-70
2022/04/04 00:55:54;;;;;;;7.35;3.55;;;;;;;7.68;50.03;101118.66;5023836;28;96877;-71
2022/04/04 00:58:21;;;;;;;4.85;3.22;;;;;;;7.12;51.55;101129.22;5025697;28;100550;-70
2022/04/04 01:00:48;;;;;;;10.35;3.50;;;;;;;7.29;50.99;101128.94;5018940;28;98920;-70
2022/04/04 01:03:18;;;;;;;4.60;3.33;;;;;;;7.42;50.77;101127.84;5022378;28;96776;-69
2022/04/04 01:05:46;;;;;;;6.25;3.67;;;;;;;7.50;50.64;101117.19;5017801;28;96795;-69
2022/04/04 01:08:13;;;;;;;3.53;2.63;;;;;;;7.57;50.15;101111.81;5019496;28;98176;-69
2022/04/04 01:10:40;;;;;;;5.78;3.40;;;;;;;7.40;50.58;101113.00;5022289;28;98948;-70
2022/04/04 01:13:08;;;;;;;7.40;3.60;;;;;;;7.47;50.57;101112.00;5022646;28;97269;-71
2022/04/04 01:15:36;;;;;;;6.88;3.22;;;;;;;7.36;50.42;101112.16;5021264;27;97022;-70
2022/04/04 01:18:05;;;;;;;4.05;3.40;;;;;;;7.11;51.39;101100.31;5028142;27;97056;-70
2022/04/04 01:20:32;;;;;;;9.50;4.13;;;;;;;7.29;50.75;101099.16;5020460;28;98771;-71
2022/04/04 01:22:59;;;;;;;8.30;3.72;;;;;;;6.95;51.84;101093.59;5020095;27;96717;-71
2022/04/04 01:25:30;;;;;;;5.13;3.28;;;;;;;7.21;51.20;101091.41;5019158;27;97547;-71
2022/04/04 01:27:57;;;;;;;6.75;3.80;;;;;;;7.30;50.88;101093.88;5014658;28;98756;-72
2022/04/04 01:30:25;;;;;;;7.22;3.92;;;;;;;7.04;51.69;101093.41;5015537;28;98874;-72
2022/04/04 01:32:52;;;;;;;5.70;3.90;;;;;;;6.98;51.71;101093.50;5024277;28;96852;-72
2022/04/04 01:35:20;;;;;;;7.57;4.00;;;;;;;6.69;52.59;101102.72;5026257;27;96845;-72
2022/04/04 01:37:46;;;;;;;7.70;4.18;;;;;;;6.95;51.89;101101.47;5019824;27;100442;-71
2022/04/04 01:40:14;;;;;;;7.70;3.92;;;;;;;6.90;51.54;101095.38;5014789;28;99514;-72
2022/04/04 01:42:46;;;;;;;6.03;4.22;;;;;;;6.94;51.77;101090.09;5016603;28;97699;-72
2022/04/04 01:45:14;;;;;;;7.78;4.13;;;;;;;7.08;51.09;101085.50;5021749;28;96768;-71
2022/04/04 01:47:41;;;;;;;7.63;4.18;;;;;;;7.06;51.27;101086.38;5019488;27;100737;-71
2022/04/04 01:50:10;;;;;;;9.00;4.68;;;;;;;7.09;51.28;101086.31;5021403;28;99166;-71
2022/04/04 01:52:38;;;;;;;5.65;4.30;;;;;;;6.96;51.76;101077.78;5014930;28;97736;-71
2022/04/04 01:55:06;;;;;;;8.82;4.38;;;;;;;7.27;50.94;101078.16;5021830;27;97608;-71
2022/04/04 01:57:34;;;;;;;6.03;3.83;;;;;;;6.95;51.75;101085.69;5017225;28;97879;-70
2022/04/04 02:00:03;;;;;;;6.80;4.40;;;;;;;6.96;51.95;101076.91;5020282;28;98771;-71
2022/04/04 02:02:30;;;;;;;8.15;4.20;;;;;;;7.02;51.98;101082.94;5021837;28;97075;-71
2022/04/04 02:04:56;;;;;;;6.38;4.32;;;;;;;7.27;50.86;101075.53;5017662;28;96875;-71
2022/04/04 02:07:23;;;;;;;7.70;4.20;;;;;;;7.11;51.34;101068.78;5019679;28;98886;-71
2022/04/04 02:09:49;;;;;;;8.05;4.68;;;;;;;7.02;51.41;101072.41;5014729;27;98989;-71
2022/04/04 02:12:16;;;;;;;6.88;4.00;;;;;;;6.51;52.66;101060.06;5024379;28;98545;-73
2022/04/04 02:14:42;;;;;;;7.28;4.38;;;;;;;7.04;51.40;101064.50;5015625;28;99123;-71
2022/04/04 02:17:13;;;;;;;8.10;4.63;;;;;;;6.87;51.92;101053.41;5021101;28;97736;-72
2022/04/04 02:19:40;;;;;;;8.30;4.85;;;;;;;6.75;52.01;101050.09;5017313;28;101265;-74
2022/04/04 02:22:06;;;;;;;7.68;4.35;;;;;;;6.77;51.91;101050.03;5023873;27;97398;-70
2022/04/04 02:24:33;;;;;;;9.55;4.63;;;;;;;6.96;51.42;101034.88;5021533;28;97140;-71
2022/04/04 02:26:59;;;;;;;8.77;4.40;;;;;;;6.53;53.22;101038.16;5020032;28;96927;-72
2022/04/04 02:29:26;;;;;;;6.82;4.45;;;;;;;6.62;52.67;101043.28;5013738;28;101224;-71
2022/04/04 02:31:53;;;;;;;6.43;4.50;;;;;;;6.95;52.00;101031.41;5021076;28;96752;-72
2022/04/04 02:34:21;;;;;;;10.30;4.68;;;;;;;6.34;53.54;101040.19;5022774;28;97409;-72
2022/04/04 02:36:47;;;;;;;9.82;4.80;;;;;;;6.62;53.47;101024.91;5017845;28;98045;-71
2022/04/04 02:39:14;;;;;;;7.20;4.88;;;;;;;6.80;52.41;101024.63;5019666;28;98414;-71
2022/04/04 02:41:43;;;;;;;7.65;4.55;;;;;;;6.69;52.54;101029.19;5024612;27;96904;-72
2022/04/04 02:44:10;;;;;;;6.72;5.00;;;;;;;6.74;52.41;101019.47;5014375;28;96813;-72
2022/04/04 02:46:36;;;;;;;7.88;4.93;;;;;;;6.72;52.51;101015.97;5015666;28;99209;-73
2022/04/04 02:49:03;;;;;;;6.47;4.32;;;;;;;6.86;52.23;101010.50;5016062;28;97612;-71
2022/04/04 02:51:31;;;;;;;8.10;4.80;;;;;;;6.72;52.84;101010.72;5021499;28;97586;-71
2022/04/04 02:54:01;;;;;;;7.97;4.45;;;;;;;6.68;52.68;101014.31;5021522;28;96799;-72
2022/04/04 02:56:30;;;;;;;6.47;4.97;;;;;;;6.78;52.40;101002.75;5026201;28;97683;-72
2022/04/04 02:59:00;;;;;;;7.93;4.70;;;;;;;6.84;52.04;101006.16;5023019;28;97580;-71
2022/04/04 03:01:28;;;;;;;8.80;5.13;;;;;;;7.07;51.43;101004.03;5023849;28;96743;-71
2022/04/04 03:03:54;;;;;;;9.15;5.07;;;;;;;6.57;52.80;100999.59;5026251;28;97070;-72
2022/04/04 03:06:21;;;;;;;8.00;5.18;;;;;;;6.58;52.81;100994.31;5022783;27;99522;-73
2022/04/04 03:08:49;;;;;;;10.52;5.38;;;;;;;6.43;53.62;100988.44;5024831;28;100652;-72
2022/04/04 03:11:16;;;;;;;6.18;5.10;;;;;;;6.75;52.54;100989.69;5023823;28;98806;-74
2022/04/04 03:13:46;;;;;;;6.95;5.35;;;;;;;6.58;52.69;100999.56;5023630;27;96821;-74
2022/04/04 03:16:14;;;;;;;7.70;5.47;;;;;;;6.53;53.05;100990.03;5018193;27;99761;-73
2022/04/04 03:18:41;;;;;;;8.38;5.07;;;;;;;6.37;53.25;100989.38;5022081;27;97658;-74
2022/04/04 03:21:08;;;;;;;9.30;5.53;;;;;;;6.68;53.22;100989.81;5023322;28;96841;-73
2022/04/04 03:23:39;;;;;;;11.73;4.97;;;;;;;6.65;53.20;100995.97;5024520;28;97013;-74
2022/04/04 03:26:09;;;;;;;7.55;4.72;;;;;;;6.99;52.10;100977.03;5017960;27;97725;-72
2022/04/04 03:28:36;;;;;;;6.13;5.35;;;;;;;6.79;52.24;100978.22;5024145;28;98903;-73
2022/04/04 03:31:04;;;;;;;9.23;5.93;;;;;;;7.11;51.70;100977.69;5021249;27;96704;-72
2022/04/04 03:33:31;;;;;;;9.82;5.43;;;;;;;7.05;51.83;100969.91;5031164;28;97065;-74
2022/04/04 03:35:59;;;;;;;11.40;5.53;;;;;;;7.09;51.79;100976.81;5021541;28;99939;-74
2022/04/04 03:38:26;;;;;;;7.90;5.32;;;;;;;6.97;51.47;100969.16;5020649;28;98548;-72
2022/04/04 03:40:53;;;;;;;8.00;4.95;;;;;;;7.11;51.40;100968.94;5012154;28;97533;-71
2022/04/04 03:43:21;;;;;;;7.45;5.22;;;;;;;7.09;51.15;100954.94;5019060;28;97213;-72
2022/04/04 03:45:48;;;;;;;8.43;5.25;;;;;;;7.09;51.34;100960.19;5020254;28;98988;-72
2022/04/04 03:48:16;;;;;;;6.57;5.05;;;;;;;7.06;51.60;100955.88;5023973;27;98075;-71
2022/04/04 03:50:43;;;;;;;8.43;5.28;;;;;;;6.61;53.10;100960.16;5021678;28;97670;-71
2022/04/04 03:53:10;;;;;;;8.75;4.95;;;;;;;6.93;51.95;100945.59;5019586;28;98398;-71
2022/04/04 03:55:39;;;;;;;8.80;5.45;;;;;;;6.29;53.51;100946.66;5019022;28;97625;-74
2022/04/04 03:58:08;;;;;;;8.77;5.28;;;;;;;6.85;51.95;100937.84;5022483;28;96843;-70
2022/04/04 04:00:36;;;;;;;8.93;5.20;;;;;;;6.54;53.15;100948.00;5022951;27;98640;-73
2022/04/04 04:03:02;;;;;;;10.70;5.47;;;;;;;6.53;52.95;100941.00;5027133;28;99045;-71
2022/04/04 04:05:29;;;;;;;14.85;4.63;;;;;;;6.58;52.88;100939.19;5022879;28;98975;-73
2022/04/04 04:07:56;;;;;;;6.68;5.00;;;;;;;6.53;53.29;100927.03;5019015;28;99638;-70
2022/04/04 04:10:23;;;;;;;8.50;4.97;;;;;;;6.64;52.67;100928.56;5026577;28;97651;-72
2022/04/04 04:12:50;;;;;;;6.68;4.60;;;;;;;6.87;52.19;100924.69;5025931;28;96911;-72
2022/04/04 04:15:19;;;;;;;6.78;5.65;;;;;;;6.56;52.90;100917.34;5018992;28;98918;-72
2022/04/04 04:17:52;;;;;;;7.68;5.25;;;;;;;6.69;53.00;100918.88;5016911;27;97881;-71
2022/04/04 04:20:23;;;;;;;10.07;4.97;;;;;;;7.03;51.30;100916.50;5019674;28;96765;-72
2022/04/04 04:22:54;;;;;;;8.63;4.60;;;;;;;7.02;51.62;100913.94;5021965;28;97259;-73
2022/04/04 04:25:21;;;;;;;9.38;5.57;;;;;;;6.93;51.47;100914.09;5024779;28;98731;-71
2022/04/04 04:27:48;;;;;;;10.00;5.15;;;;;;;7.05;51.59;100908.59;5021180;28;98594;-72
2022/04/04 04:30:15;;;;;;;8.32;5.55;;;;;;;6.91;52.00;100906.22;5028284;27;96994;-71
2022/04/04 04:32:43;;;;;;;9.27;5.15;;;;;;;7.14;51.34;100908.44;5025344;27;96812;-71
2022/04/04 04:35:12;;;;;;;9.05;5.05;;;;;;;6.74;52.15;100903.91;5019736;28;98928;-72
2022/04/04 04:37:42;;;;;;;6.30;4.05;;;;;;;6.83;52.06;100902.03;5022083;28;99952;-73
2022/04/04 04:40:10;;;;;;;9.80;4.93;;;;;;;6.71;52.00;100897.81;5025610;28;98607;-72
2022/04/04 04:42:38;;;;;;;11.05;5.03;;;;;;;7.00;51.80;100892.06;5021854;28;97285;-72
2022/04/04 04:45:07;;;;;;;6.20;5.03;;;;;;;7.02;51.33;100890.28;5023622;28;97675;-72
2022/04/04 04:47:34;;;;;;;6.95;4.75;;;;;;;6.94;51.59;100893.06;5015555;28;101985;-72
2022/04/04 04:50:01;;;;;;;7.00;4.55;;;;;;;6.98;51.15;100889.47;5023390;27;97027;-72
2022/04/04 04:52:29;;;;;;;5.50;4.25;;;;;;;7.19;50.66;100891.69;5020242;28;99695;-72
2022/04/04 04:54:56;;;;;;;7.05;4.93;;;;;;;7.08;50.60;100880.53;5022569;28;98867;-72
2022/04/04 04:57:22;;;;;;;7.70;5.45;;;;;;;6.93;51.41;100882.56;5012970;28;99041;-72
2022/04/04 04:59:50;;;;;;;6.47;4.82;;;;;;;6.95;51.41;100868.50;5020350;27;96930;-73
2022/04/04 05:02:16;;;;;;;8.48;4.72;;;;;;;7.14;50.57;100876.91;5025994;28;96984;-71
2022/04/04 05:04:43;;;;;;;12.15;5.53;;;;;;;6.77;51.47;100869.69;5021786;28;98877;-72
2022/04/04 05:07:09;;;;;;;6.88;4.57;;;;;;;6.92;51.43;100870.31;5019483;28;99297;-71
2022/04/04 05:09:38;;;;;;;9.48;4.65;;;;;;;7.07;51.10;100864.78;5018762;28;96826;-70
2022/04/04 05:12:05;;;;;;;8.90;4.75;;;;;;;7.22;50.49;100870.59;5020519;28;99249;-72
2022/04/04 05:14:32;;;;;;;5.82;4.95;;;;;;;7.35;50.44;100863.31;5020155;28;100026;-71
2022/04/04 05:16:58;;;;;;;6.78;4.93;;;;;;;7.27;50.06;100857.38;5017045;27;99362;-70
2022/04/04 05:19:25;;;;;;;5.50;4.63;;;;;;;7.41;50.17;100857.97;5018359;28;96903;-69
2022/04/04 05:21:52;;;;;;;10.82;4.97;;;;;;;7.44;49.71;100852.63;5021143;28;96815;-69
2022/04/04 05:24:19;;;;;;;7.75;4.82;;;;;;;7.77;48.63;100853.66;5017806;28;98761;-71
2022/04/04 05:26:50;;;;;;;6.85;4.85;;;;;;;7.74;48.87;100839.72;5022439;28;96787;-71
2022/04/04 05:29:17;;;;;;;6.68;4.55;;;;;;;7.62;48.42;100846.09;5022946;28;96768;-72
2022/04/04 05:31:45;;;;;;;9.52;4.65;;;;;;;7.80;48.46;100832.56;5018633;27;96842;-71
2022/04/04 05:34:12;;;;;;;6.90;4.82;;;;;;;7.88;48.24;100837.63;5024433;28;98122;-71
2022/04/04 05:36:38;;;;;;;7.05;4.53;;;;;;;7.87;48.18;100838.53;5019591;28;101338;-71
2022/04/04 05:39:07;;;;;;;6.85;5.00;;;;;;;8.11;47.66;100843.22;5018980;28;96755;-71
2022/04/04 05:41:36;;;;;;;10.80;5.53;;;;;;;7.73;48.26;100830.09;5021559;27;96899;-71
2022/04/04 05:44:06;;;;;;;10.73;4.50;;;;;;;7.72;48.37;100831.84;5017436;27;101054;-74
2022/04/04 05:46:33;;;;;;;8.30;4.45;;;;;;;8.16;47.43;100827.31;5019894;27;101633;-72
2022/04/04 05:49:01;;;;;;;6.10;4.85;;;;;;;7.87;47.84;100825.41;5015175;28;96770;-71
2022/04/04 05:51:31;;;;;;;9.82;5.00;;;;;;;7.69;48.19;100823.16;5020935;27;98210;-72
2022/04/04 05:53:57;;;;;;;9.23;5.05;;;;;;;7.44;48.96;100825.47;5019702;27;101427;-72
2022/04/04 05:56:27;;;;;;;11.50;5.03;;;;;;;8.15;47.17;100836.97;5016309;28;99209;-72
2022/04/04 05:58:54;;;;;;;7.28;5.13;;;;;;;8.05;47.22;100818.81;5020757;28;96753;-71
2022/04/04 06:01:21;;;;;;;6.28;5.18;;;;;;;8.12;46.93;100821.28;5018088;28;98673;-72
2022/04/04 06:03:50;;;;;;;15.68;5.95;;;;;;;8.51;45.93;100819.44;5018924;28;99522;-71
2022/04/04 06:06:17;;;;;;;7.63;5.00;;;;;;;8.56;45.98;100820.19;5018348;27;99339;-73
2022/04/04 06:08:43;;;;;;;13.45;5.88;;;;;;;8.57;45.65;100807.88;5008820;27;96916;-74
2022/04/04 06:11:10;;;;;;;9.52;5.47;;;;;;;8.13;46.80;100812.47;5011692;28;97186;-73
2022/04/04 06:13:37;;;;;;;7.22;5.35;;;;;;;8.26;46.46;100808.66;5020555;28;99473;-72
2022/04/04 06:16:05;;;;;;;8.30;5.78;;;;;;;8.69;45.36;100804.91;5020907;27;101104;-72
2022/04/04 06:18:34;;;;;;;7.70;5.80;;;;;;;8.60;45.40;100797.28;5016301;28;97460;-71
2022/04/04 06:21:02;;;;;;;13.38;6.07;;;;;;;8.57;45.81;100797.34;5023450;27;96983;-72
2022/04/04 06:23:29;;;;;;;6.65;5.28;;;;;;;8.96;44.71;100791.00;5015389;28;101484;-72
2022/04/04 06:26:04;;;;;;;18.52;6.20;;;;;;;8.68;45.30;100790.00;5015551;28;98863;-72
2022/04/04 06:28:31;;;;;;;8.17;5.63;;;;;;;8.94;44.59;100779.63;5017627;28;98755;-73
2022/04/04 06:30:59;;;;;;;12.93;6.60;;;;;;;9.25;43.89;100786.66;5012800;28;97298;-72
2022/04/04 06:33:26;;;;;;;13.40;6.90;;;;;;;9.31;43.74;100778.56;5017712;28;99403;-72
2022/04/04 06:35:58;;;;;;;12.38;6.63;;;;;;;9.30;43.20;100774.19;5011951;28;101158;-74
2022/04/04 06:38:25;;;;;;;14.95;7.30;;;;;;;9.15;43.69;100789.56;5013389;27;96856;-74
2022/04/04 06:40:52;;;;;;;15.75;7.10;;;;;;;8.66;44.64;100768.97;5010935;27;97464;-71
2022/04/04 06:43:19;;;;;;;10.75;7.55;;;;;;;8.77;44.33;100766.06;5021475;28;98076;-73
2022/04/04 06:45:49;;;;;;;12.95;8.25;;;;;;;8.82;44.33;100756.25;5016394;28;98788;-71
2022/04/04 06:48:15;;;;;;;10.82;7.35;;;;;;;8.64;44.53;100747.09;5018203;27;97213;-72
2022/04/04 06:50:42;;;;;;;16.25;8.20;;;;;;;8.62;44.67;100748.03;5022110;28;98003;-71
2022/04/04 06:53:11;;;;;;;39.03;9.00;;;;;;;9.04;43.96;100749.47;5016228;28;101466;-73
2022/04/04 06:55:39;;;;;;;19.50;7.68;;;;;;;8.69;44.20;100750.47;5019506;27;97557;-71
2022/04/04 06:58:06;;;;;;;15.38;7.65;;;;;;;8.94;44.01;100749.75;5018149;28;96992;-73
2022/04/04 07:00:34;;;;;;;18.80;8.75;;;;;;;9.09;43.59;100754.59;5019109;27;97300;-72
2022/04/04 07:03:01;;;;;;;11.70;8.40;;;;;;;8.96;44.08;100740.06;5018967;27;98068;-72
2022/04/04 07:05:28;;;;;;;28.15;8.57;;;;;;;8.91;43.44;100734.06;5014670;27;99072;-72
2022/04/04 07:07:55;;;;;;;19.00;8.70;;;;;;;9.35;42.64;100733.59;5022363;27;98444;-72
2022/04/04 07:10:23;;;;;;;13.20;7.50;;;;;;;9.49;42.36;100725.25;5022393;28;97148;-73
2022/04/04 07:12:50;;;;;;;11.70;8.82;;;;;;;9.33;42.34;100718.72;5021338;28;98833;-74
2022/04/04 07:15:16;;;;;;;10.13;8.23;;;;;;;9.09;42.75;100729.09;5019569;28;101775;-73
2022/04/04 07:17:44;;;;;;;12.07;8.45;;;;;;;8.88;43.41;100713.06;5021572;27;97239;-72
2022/04/04 07:20:12;;;;;;;11.05;8.50;;;;;;;9.39;42.49;100710.59;5016565;28;97367;-73
2022/04/04 07:22:44;;;;;;;12.98;8.85;;;;;;;9.56;41.65;100701.28;5023287;27;97867;-71
2022/04/04 07:25:14;;;;;;;22.48;9.18;;;;;;;9.48;42.16;100702.41;5018555;27;101610;-70
2022/04/04 07:27:43;;;;;;;14.70;9.02;;;;;;;9.48;42.03;100692.75;5013914;28;99611;-71
2022/04/04 07:30:12;;;;;;;13.98;9.65;;;;;;;9.51;41.86;100681.25;5011153;27;97086;-72
2022/04/04 07:32:39;;;;;;;17.17;9.27;;;;;;;9.12;42.43;100683.34;5015490;28;102047;-73
2022/04/04 07:35:10;;;;;;;120.45;12.85;;;;;;;9.37;42.38;100671.13;5025647;27;99008;-71
2022/04/04 07:37:38;;;;;;;14.13;9.13;;;;;;;9.98;41.02;100683.16;5017473;28;97284;-72
2022/04/04 07:40:06;;;;;;;20.88;8.98;;;;;;;9.64;41.51;100679.06;5018385;27;97731;-72
2022/04/04 07:42:34;;;;;;;13.15;8.85;;;;;;;9.42;42.20;100657.78;5022017;28;98828;-73
2022/04/04 07:45:02;;;;;;;13.70;8.73;;;;;;;9.58;41.52;100673.06;5019288;27;99393;-73
2022/04/04 07:47:28;;;;;;;15.25;9.18;;;;;;;10.13;40.05;100662.41;5015256;27;98131;-71
2022/04/04 07:49:55;;;;;;;12.90;9.23;;;;;;;10.40;39.69;100656.19;5021429;28;97134;-71
2022/04/04 07:52:22;;;;;;;14.98;9.82;;;;;;;10.11;39.71;100651.06;5019371;28;99375;-70
2022/04/04 07:54:48;;;;;;;10.68;8.98;;;;;;;10.11;40.44;100648.44;5025313;28;98971;-70
2022/04/04 07:57:15;;;;;;;14.35;8.90;;;;;;;10.57;39.33;100637.06;5026394;28;97694;-71
2022/04/04 07:59:41;;;;;;;12.65;9.25;;;;;;;10.33;39.46;100644.13;5024948;27;97480;-71
2022/04/04 08:02:10;;;;;;;12.65;8.82;;;;;;;10.52;39.08;100637.25;5017608;28;97744;-72
2022/04/04 08:04:36;;;;;;;19.58;8.85;;;;;;;9.97;39.65;100639.22;5019125;28;99191;-72
2022/04/04 08:07:03;;;;;;;13.95;9.48;;;;;;;10.33;39.35;100625.63;5021303;28;97449;-71
2022/04/04 08:09:29;;;;;;;24.40;10.77;;;;;;;10.52;38.60;100621.41;5021247;28;97203;-72
2022/04/04 08:11:56;;;;;;;15.32;9.18;;;;;;;10.30;38.49;100616.06;5019076;27;99512;-71
2022/04/04 08:14:24;;;;;;;25.48;9.00;;;;;;;9.86;39.56;100612.31;5026575;28;98006;-72
2022/04/04 08:16:50;;;;;;;14.07;9.20;;;;;;;9.85;39.56;100605.31;5017134;28;96856;-71
2022/04/04 08:19:19;;;;;;;13.20;9.25;;;;;;;10.09;38.93;100605.38;5020348;28;96884;-71
2022/04/04 08:21:46;;;;;;;15.32;8.95;;;;;;;10.08;38.75;100601.88;5017336;28;99269;-70
2022/04/04 08:24:14;;;;;;;15.43;9.90;;;;;;;10.27;38.52;100594.16;5014978;28;99255;-70
2022/04/04 08:26:40;;;;;;;13.88;7.75;;;;;;;10.92;37.13;100593.44;5011572;28;96859;-71
2022/04/04 08:29:07;;;;;;;10.30;8.35;;;;;;;10.86;37.30;100588.41;5017327;28;97627;-70
2022/04/04 08:31:34;;;;;;;15.80;8.80;;;;;;;11.19;36.32;100579.13;5013995;28;102832;-71
2022/04/04 08:34:00;;;;;;;15.32;8.80;;;;;;;10.85;36.84;100568.19;5020985;28;99993;-71
2022/04/04 08:36:28;;;;;;;15.68;8.48;;;;;;;11.12;36.35;100565.31;5014693;28;97053;-70
2022/04/04 08:38:55;;;;;;;18.60;9.23;;;;;;;11.00;36.63;100568.44;5022195;28;97034;-71
2022/04/04 08:41:23;;;;;;;15.52;9.18;;;;;;;10.71;37.48;100561.66;5013656;28;98407;-71
2022/04/04 08:43:50;;;;;;;12.38;8.18;;;;;;;10.55;37.16;100549.97;5018807;28;98901;-70
2022/04/04 08:46:17;;;;;;;19.67;7.75;;;;;;;11.15;36.51;100543.16;5016618;28;97548;-70
2022/04/04 08:48:44;;;;;;;36.22;9.02;;;;;;;11.25;36.11;100533.91;5019694;28;97034;-69
2022/04/04 08:51:11;;;;;;;11.20;7.85;;;;;;;11.43;36.10;100525.19;5018666;28;97256;-69
2022/04/04 08:53:40;;;;;;;12.30;8.02;;;;;;;11.66;35.48;100512.78;5021447;27;98918;-71
2022/04/04 08:56:09;;;;;;;16.33;7.93;;;;;;;11.23;35.93;100517.25;5018832;28;100212;-72
2022/04/04 08:58:36;;;;;;;15.45;7.30;;;;;;;11.27;35.95;100507.41;5022296;28;98319;-72
2022/04/04 09:01:03;;;;;;;9.63;7.80;;;;;;;11.97;34.93;100505.22;5024032;28;98958;-72
2022/04/04 09:03:31;;;;;;;11.15;7.40;;;;;;;12.15;34.37;100506.19;5027333;28;99297;-73
2022/04/04 09:05:59;;;;;;;17.90;7.55;;;;;;;11.97;34.01;100487.56;5021889;27;97588;-71
2022/04/04 09:08:28;;;;;;;19.48;7.30;;;;;;;11.93;34.40;100485.13;5024574;28;96805;-72
2022/04/04 09:11:00;;;;;;;15.38;7.40;;;;;;;11.47;34.49;100484.47;5020460;28;100171;-72
2022/04/04 09:13:28;;;;;;;18.58;7.03;;;;;;;11.34;34.58;100472.72;5020479;28;98974;-72
2022/04/04 09:15:59;;;;;;;15.60;6.80;;;;;;;11.08;34.90;100468.53;5020050;28;97237;-71
2022/04/04 09:18:45;;;;;;;11.65;6.85;;;;;;;11.11;35.39;100478.09;5016066;28;97288;-72
2022/04/04 09:21:13;;;;;;;13.65;7.15;;;;;;;11.10;35.11;100455.22;5023918;28;97767;-73
2022/04/04 09:23:56;;;;;;;16.50;6.68;;;;;;;11.51;34.83;100446.38;5019161;28;97938;-71
2022/04/04 09:26:36;;;;;;;22.20;7.32;;;;;;;11.40;34.84;100442.47;5017388;28;96769;-72
2022/04/04 09:29:08;;;;;;;21.27;8.00;;;;;;;11.83;33.88;100439.66;5022024;28;96981;-72
2022/04/04 09:31:35;;;;;;;22.45;6.70;;;;;;;11.96;33.89;100424.06;5019980;27;97892;-72
2022/04/04 09:34:03;;;;;;;13.60;6.43;;;;;;;11.97;33.38;100424.00;5020591;27;101921;-71
2022/04/04 09:36:30;;;;;;;20.58;7.13;;;;;;;11.67;33.95;100406.00;5018168;28;97382;-73
2022/04/04 09:39:03;;;;;;;13.93;7.75;;;;;;;11.52;34.17;100408.41;5021578;28;97366;-72
2022/04/04 09:41:30;;;;;;;15.35;7.20;;;;;;;11.71;33.73;100407.56;5014545;28;99025;-72
2022/04/04 09:43:59;;;;;;;15.25;8.15;;;;;;;12.30;33.09;100397.72;5020346;28;101753;-73
2022/04/04 09:46:31;;;;;;;39.60;9.65;;;;;;;11.22;34.31;100388.59;5020769;28;96750;-68
2022/04/04 09:49:07;;;;;;;16.15;7.60;;;;;;;11.98;33.59;100377.22;5020548;28;97589;-70
2022/04/04 09:51:39;;;;;;;26.43;8.43;;;;;;;12.08;32.91;100367.88;5011006;28;98741;-73
2022/04/04 09:54:07;;;;;;;82.30;11.45;;;;;;;11.29;34.26;100373.31;5020940;27;99566;-72
2022/04/04 09:56:34;;;;;;;18.83;8.98;;;;;;;11.82;33.63;100361.16;5023858;27;96800;-72
2022/04/04 09:59:03;;;;;;;14.82;7.90;;;;;;;12.28;32.60;100346.59;5017003;28;98105;-71
2022/04/04 10:01:32;;;;;;;11.60;7.60;;;;;;;12.86;31.90;100330.44;5016568;27;101029;-71
2022/04/04 10:04:00;;;;;;;14.02;7.78;;;;;;;13.25;31.38;100345.25;5022119;28;102447;-71
2022/04/04 10:06:29;;;;;;;100.85;11.43;;;;;;;12.29;32.57;100337.72;5020627;27;97133;-71
2022/04/04 10:08:58;;;;;;;20.35;8.27;;;;;;;12.50;32.25;100313.75;5024397;27;96914;-72
2022/04/04 10:11:25;;;;;;;22.42;8.38;;;;;;;12.29;32.41;100305.06;5016772;28;97671;-72
2022/04/04 10:13:53;;;;;;;23.45;8.82;;;;;;;12.67;32.00;100305.78;5022036;28;99246;-72
2022/04/04 10:16:23;;;;;;;168.60;15.07;;;;;;;12.42;32.23;100298.22;5019473;28;96976;-74
2022/04/04 10:18:51;;;;;;;22.92;7.97;;;;;;;11.56;33.41;100293.53;5022197;28;96865;-72
2022/04/04 10:21:18;;;;;;;28.17;8.38;;;;;;;12.10;32.80;100283.94;5018498;28;99279;-73
2022/04/04 10:23:48;;;;;;;15.75;7.82;;;;;;;11.83;32.72;100259.66;5021953;28;99246;-73
2022/04/04 10:26:16;;;;;;;25.63;7.75;;;;;;;11.83;33.04;100269.38;5013902;28;97826;-73
2022/04/04 10:28:44;;;;;;;14.50;8.00;;;;;;;11.69;32.96;100267.34;5021395;28;97785;-74
2022/04/04 10:31:12;;;;;;;29.48;9.27;;;;;;;11.14;34.15;100253.19;5027100;28;99283;-73
2022/04/04 10:33:43;;;;;;;14.32;7.80;;;;;;;11.87;32.88;100257.72;5012916;28;99505;-72
2022/04/04 10:36:11;;;;;;;17.63;8.40;;;;;;;12.05;32.65;100248.00;5015551;28;96770;-72
2022/04/04 10:38:40;;;;;;;14.95;8.13;;;;;;;11.76;33.11;100242.34;5017793;28;97090;-73
2022/04/04 10:41:09;;;;;;;18.60;8.00;;;;;;;11.92;32.93;100232.75;5014955;28;99195;-73
2022/04/04 10:43:38;;;;;;;15.73;7.43;;;;;;;12.83;31.47;100215.72;5016573;28;99150;-73
2022/04/04 10:46:09;;;;;;;40.92;8.43;;;;;;;12.50;31.79;100210.41;5020426;28;96840;-72
2022/04/04 10:48:39;;;;;;;65.97;9.40;;;;;;;12.19;32.24;100201.38;5018262;28;98750;-72
2022/04/04 10:51:17;;;;;;;242.57;17.25;;;;;;;12.07;32.05;100194.06;5018694;28;99043;-72
2022/04/04 10:53:45;;;;;;;11.98;7.20;;;;;;;11.98;32.45;100190.06;5011347;28;102101;-73
2022/04/04 10:56:18;;;;;;;13.82;7.75;;;;;;;12.13;32.12;100175.22;5017800;28;99080;-72
2022/04/04 10:58:44;;;;;;;156.77;11.18;;;;;;;11.45;32.74;100183.84;5011470;28;97982;-71
2022/04/04 11:01:16;;;;;;;16.75;6.95;;;;;;;12.29;32.08;100167.31;5011260;27;99224;-71
2022/04/04 11:03:58;;;;;;;16.55;7.43;;;;;;;12.08;32.20;100168.44;5020223;28;100644;-73
2022/04/04 11:09:32;;;;;;;40.47;7.20;;;;;;;11.76;31.79;100141.75;5018989;28;97376;-72
2022/04/04 11:12:14;;;;;;;82.28;9.38;;;;;;;11.50;31.93;100140.38;5023651;28;99320;-74
2022/04/04 11:15:00;;;;;;;20.17;6.47;;;;;;;11.66;31.63;100142.28;5022048;28;101325;-72
2022/04/04 11:17:57;;;;;;;23.75;6.43;;;;;;;11.55;31.84;100133.06;5021580;28;97533;-72
2022/04/04 11:20:38;;;;;;;291.17;18.00;;;;;;;12.02;30.84;100119.25;5021283;28;97138;-71
2022/04/04 11:23:14;;;;;;;15.55;5.90;;;;;;;11.70;31.24;100115.56;5021005;28;98521;-72
2022/04/04 11:25:55;;;;;;;38.47;5.97;;;;;;;11.61;31.88;100131.06;5014599;28;99230;-72
2022/04/04 11:28:30;;;;;;;21.85;5.63;;;;;;;11.27;32.44;100100.09;5017744;28;97303;-72
2022/04/04 11:31:05;;;;;;;18.40;5.40;;;;;;;11.51;31.98;100094.47;5014843;28;98736;-72
2022/04/04 11:33:34;;;;;;;14.00;5.07;;;;;;;11.85;31.52;100114.84;5017276;28;99540;-70